Time;durP1;ratioP1;P1;durP2;ratioP2;P2;SDS_P1;SDS_P2;PMS_P1;PMS_P2;Temp;Humidity;BMP_temperature;BMP_pressure;BME280_temperature;BME280_humidity;BME280_pressure;Samples;Min_cycle;Max_cycle;Signal;HPM_P1;HPM_P2
2021/05/27 00:00:52;;;;;;;1.98;1.10;;;11.30;84.50;;;;;;5095196;28;20169;-77
2021/05/27 00:03:17;;;;;;;2.33;1.30;;;11.30;84.50;;;;;;5113442;28;20046;-78
2021/05/27 00:05:43;;;;;;;2.08;1.08;;;11.30;84.50;;;;;;5061362;28;20102;-77
2021/05/27 00:08:09;;;;;;;1.60;1.00;;;11.20;84.60;;;;;;5095047;28;20055;-77
2021/05/27 00:10:36;;;;;;;1.90;1.13;;;11.20;84.60;;;;;;5113705;28;20054;-77
2021/05/27 00:13:02;;;;;;;3.47;1.50;;;11.30;84.80;;;;;;5095409;28;20047;-77
2021/05/27 00:15:31;;;;;;;1.58;1.15;;;11.10;84.70;;;;;;5113271;28;20048;-77
2021/05/27 00:17:57;;;;;;;1.90;1.23;;;11.10;84.70;;;;;;5112954;28;20109;-76
2021/05/27 00:20:23;;;;;;;2.15;1.20;;;11.10;84.80;;;;;;5095386;28;20044;-78
2021/05/27 00:22:49;;;;;;;1.73;1.10;;;11.10;84.90;;;;;;5113508;28;20395;-77
2021/05/27 00:25:16;;;;;;;2.13;1.30;;;11.00;84.90;;;;;;5113007;28;20039;-77
2021/05/27 00:27:43;;;;;;;2.08;1.20;;;11.00;85.00;;;;;;5094686;28;20047;-77
2021/05/27 00:30:10;;;;;;;1.60;0.90;;;11.00;85.00;;;;;;5061113;28;20035;-77
2021/05/27 00:32:36;;;;;;;1.63;0.93;;;11.00;85.10;;;;;;5094591;28;20047;-77
2021/05/27 00:35:03;;;;;;;2.90;1.15;;;11.00;85.10;;;;;;5077803;28;20047;-77
2021/05/27 00:37:28;;;;;;;1.55;1.10;;;10.90;85.10;;;;;;5112776;28;20036;-77
2021/05/27 00:39:54;;;;;;;2.53;1.25;;;10.90;85.10;;;;;;5094388;28;20510;-77
2021/05/27 00:42:20;;;;;;;2.53;1.23;;;10.90;85.20;;;;;;5060726;28;20035;-77
2021/05/27 00:44:59;;;;;;;1.00;0.90;;;10.80;85.20;;;;;;5094946;28;20122;-78
2021/05/27 00:47:24;;;;;;;1.10;0.98;;;10.80;85.40;;;;;;5112515;28;20040;-76
2021/05/27 00:49:50;;;;;;;1.38;1.10;;;10.80;85.40;;;;;;5077510;28;20043;-77
2021/05/27 00:52:16;;;;;;;2.08;1.05;;;10.80;85.40;;;;;;5094374;28;20039;-77
2021/05/27 00:54:41;;;;;;;1.60;1.00;;;10.80;85.50;;;;;;5112420;28;20045;-77
2021/05/27 00:57:16;;;;;;;2.47;1.10;;;10.80;85.50;;;;;;5112432;28;20061;-77
2021/05/27 00:59:42;;;;;;;1.23;0.98;;;10.70;85.50;;;;;;5094197;28;20046;-77
2021/05/27 01:02:08;;;;;;;1.08;0.90;;;10.80;85.50;;;;;;5094121;28;20031;-77
2021/05/27 01:04:34;;;;;;;1.35;1.00;;;10.70;85.60;;;;;;5094344;28;20498;-77
2021/05/27 01:06:59;;;;;;;1.33;0.85;;;10.70;85.70;;;;;;5077182;28;20145;-77
2021/05/27 01:09:25;;;;;;;1.40;1.00;;;10.70;85.70;;;;;;5077056;28;20051;-76
2021/05/27 01:11:50;;;;;;;2.03;1.00;;;10.70;85.70;;;;;;5092933;28;20051;-77
2021/05/27 01:15:25;;;;;;;1.05;0.77;;;10.70;85.70;;;;;;5095045;28;20054;-77
2021/05/27 01:17:06;;;;;;;1.70;1.05;;;10.70;86.40;;;;;;5115800;28;20144;-76
2021/05/27 01:19:32;;;;;;;2.00;1.00;;;10.70;85.70;;;;;;5079143;28;20078;-77
2021/05/27 01:21:58;;;;;;;1.40;1.08;;;10.70;85.70;;;;;;5097114;28;20418;-77
2021/05/27 01:24:24;;;;;;;1.80;1.00;;;10.60;85.80;;;;;;5097452;28;20067;-76
2021/05/27 01:26:50;;;;;;;1.88;1.17;;;10.60;85.80;;;;;;5115937;28;20524;-78
2021/05/27 01:29:15;;;;;;;2.05;1.25;;;10.60;85.80;;;;;;5115583;28;20380;-77
2021/05/27 01:31:41;;;;;;;2.08;1.00;;;10.60;85.90;;;;;;5097385;28;20039;-76
2021/05/27 01:34:09;;;;;;;1.15;1.02;;;10.60;85.90;;;;;;5115913;28;20096;-77
2021/05/27 01:36:35;;;;;;;1.55;0.90;;;10.50;86.00;;;;;;5116325;28;20501;-77
2021/05/27 01:39:01;;;;;;;1.20;1.00;;;10.50;86.00;;;;;;5097644;28;20040;-76
2021/05/27 01:41:27;;;;;;;2.05;1.05;;;10.40;86.00;;;;;;5115607;28;20042;-77
2021/05/27 01:43:52;;;;;;;1.17;0.88;;;10.40;86.10;;;;;;5097498;28;20050;-76
2021/05/27 01:46:18;;;;;;;1.33;0.90;;;10.40;86.20;;;;;;5115565;28;20031;-76
2021/05/27 01:48:44;;;;;;;1.60;0.85;;;10.40;86.30;;;;;;5097474;28;20092;-76
2021/05/27 01:51:11;;;;;;;1.13;0.98;;;10.40;86.30;;;;;;5096450;28;20554;-77
2021/05/27 01:53:37;;;;;;;1.00;0.90;;;10.40;86.40;;;;;;5115582;28;20122;-77
2021/05/27 01:56:03;;;;;;;1.45;0.75;;;10.40;86.40;;;;;;5097259;28;20126;-77
2021/05/27 01:58:28;;;;;;;1.17;0.80;;;10.30;86.40;;;;;;5096928;28;20042;-76
2021/05/27 02:00:54;;;;;;;1.30;0.70;;;10.30;86.50;;;;;;5115234;28;20123;-77
2021/05/27 02:03:20;;;;;;;1.20;0.85;;;10.30;86.60;;;;;;5094870;28;20475;-77
2021/05/27 02:05:46;;;;;;;2.40;1.08;;;10.30;86.60;;;;;;5063454;28;20048;-77
2021/05/27 02:08:11;;;;;;;1.63;0.95;;;10.20;86.60;;;;;;5114962;28;20036;-77
2021/05/27 02:10:37;;;;;;;0.80;0.70;;;10.20;86.70;;;;;;5096947;28;20043;-77
2021/05/27 02:13:03;;;;;;;1.05;0.80;;;10.20;86.70;;;;;;5096332;28;20108;-77
2021/05/27 02:15:30;;;;;;;1.60;0.80;;;10.20;86.80;;;;;;5063203;28;20046;-78
2021/05/27 02:17:56;;;;;;;1.17;0.80;;;10.20;86.80;;;;;;5115391;28;20043;-78
2021/05/27 02:20:22;;;;;;;1.30;0.90;;;10.20;86.80;;;;;;5080243;28;20036;-77
2021/05/27 02:22:47;;;;;;;0.98;0.82;;;10.20;86.90;;;;;;5079719;28;20080;-77
2021/05/27 02:25:14;;;;;;;1.70;0.90;;;10.10;86.90;;;;;;5062725;28;20124;-78
2021/05/27 02:27:39;;;;;;;1.77;0.88;;;10.20;86.90;;;;;;5115229;28;20043;-78
2021/05/27 02:30:06;;;;;;;1.40;0.75;;;10.10;86.90;;;;;;5115213;28;20418;-77
2021/05/27 02:32:32;;;;;;;0.70;0.70;;;10.10;87.00;;;;;;5096542;28;20075;-78
2021/05/27 02:34:57;;;;;;;1.00;0.75;;;10.10;87.00;;;;;;5096565;28;20521;-78
2021/05/27 02:37:23;;;;;;;0.75;0.70;;;10.10;87.10;;;;;;5062953;28;20043;-78
2021/05/27 02:39:49;;;;;;;2.13;0.70;;;10.10;87.10;;;;;;5096818;28;20055;-78
2021/05/27 02:42:15;;;;;;;1.20;0.95;;;10.10;87.10;;;;;;5079559;28;20032;-78
2021/05/27 02:44:40;;;;;;;1.02;0.93;;;10.10;87.10;;;;;;5097110;28;20444;-78
2021/05/27 02:47:06;;;;;;;1.55;0.90;;;10.10;87.10;;;;;;5079591;28;20043;-78
2021/05/27 02:49:32;;;;;;;1.33;0.88;;;10.10;87.20;;;;;;5114491;28;20043;-78
2021/05/27 02:51:58;;;;;;;2.45;0.98;;;10.10;87.20;;;;;;5096394;28;20043;-78
2021/05/27 02:54:25;;;;;;;1.90;0.90;;;10.10;87.20;;;;;;5079486;28;20094;-77
2021/05/27 02:56:51;;;;;;;1.13;0.88;;;10.10;87.20;;;;;;5079490;28;20071;-77
2021/05/27 02:59:16;;;;;;;1.67;0.70;;;10.10;87.30;;;;;;5094953;28;20051;-78
2021/05/27 03:01:42;;;;;;;1.65;0.95;;;10.10;87.30;;;;;;5079360;28;20049;-77
2021/05/27 03:04:08;;;;;;;1.42;0.70;;;10.10;87.40;;;;;;5079192;28;20146;-77
2021/05/27 03:06:34;;;;;;;1.23;0.82;;;10.00;87.30;;;;;;5096049;28;20391;-78
2021/05/27 03:08:59;;;;;;;1.23;0.80;;;10.00;87.40;;;;;;5114138;28;20505;-78
2021/05/27 03:11:25;;;;;;;0.75;0.65;;;10.00;87.40;;;;;;5096503;28;20039;-78
2021/05/27 03:13:51;;;;;;;2.28;0.77;;;10.00;87.40;;;;;;5095055;28;20112;-77
2021/05/27 03:16:17;;;;;;;1.52;0.93;;;10.00;87.50;;;;;;5094496;28;20044;-78
2021/05/27 03:18:43;;;;;;;2.25;0.93;;;10.00;87.50;;;;;;5093732;28;20044;-78
2021/05/27 03:21:08;;;;;;;1.65;0.80;;;10.00;87.60;;;;;;5062180;28;20495;-78
2021/05/27 03:23:34;;;;;;;2.03;0.80;;;10.00;87.60;;;;;;5094641;28;20097;-78
2021/05/27 03:26:00;;;;;;;0.88;0.77;;;9.90;88.20;;;;;;5078797;28;20394;-78
2021/05/27 03:28:26;;;;;;;1.77;0.85;;;10.00;87.60;;;;;;5113850;28;20126;-78
2021/05/27 03:30:52;;;;;;;2.13;0.90;;;9.90;87.60;;;;;;5095150;28;20158;-78
2021/05/27 03:33:18;;;;;;;1.45;0.90;;;9.90;87.70;;;;;;5095766;28;20039;-78
2021/05/27 03:35:44;;;;;;;1.17;0.77;;;9.90;87.70;;;;;;5078711;28;20047;-77
2021/05/27 03:38:09;;;;;;;0.70;0.70;;;10.00;88.30;;;;;;5077958;28;20112;-78
2021/05/27 03:40:35;;;;;;;1.80;0.80;;;9.90;87.70;;;;;;5078566;28;20050;-77
2021/05/27 03:43:01;;;;;;;1.25;0.70;;;9.90;87.70;;;;;;5078778;28;20072;-77
2021/05/27 03:45:29;;;;;;;2.00;0.98;;;10.00;87.90;;;;;;5095556;28;20047;-77
2021/05/27 03:47:56;;;;;;;2.15;0.70;;;9.90;87.90;;;;;;5113632;28;20035;-77
2021/05/27 03:50:24;;;;;;;1.27;0.90;;;9.90;87.90;;;;;;5095214;28;20039;-77
2021/05/27 03:52:49;;;;;;;1.95;0.90;;;9.90;87.90;;;;;;5078350;28;20043;-77
2021/05/27 03:55:17;;;;;;;1.75;0.73;;;9.90;87.90;;;;;;5093085;28;20584;-77
2021/05/27 03:57:44;;;;;;;1.67;0.90;;;9.90;87.90;;;;;;5113820;28;20469;-78
2021/05/27 04:02:58;;;;;;;0.95;0.80;;;9.90;87.90;;;;;;5113435;28;20553;-78
2021/05/27 04:08:07;;;;;;;1.42;0.80;;;9.90;87.90;;;;;;5097686;28;20036;-77
2021/05/27 04:10:33;;;;;;;1.20;0.80;;;9.90;87.90;;;;;;5078305;28;20089;-78
2021/05/27 04:13:00;;;;;;;1.70;0.82;;;9.90;87.90;;;;;;5095823;28;20528;-78
2021/05/27 04:15:29;;;;;;;1.48;0.77;;;9.90;88.00;;;;;;5095002;28;20052;-77
2021/05/27 04:18:10;;;;;;;1.25;0.70;;;9.90;88.00;;;;;;5078206;28;20092;-78
2021/05/27 04:20:42;;;;;;;1.02;0.85;;;9.90;88.10;;;;;;5094818;28;20546;-77
2021/05/27 04:23:11;;;;;;;1.15;0.80;;;9.80;88.00;;;;;;5078076;28;20046;-78
2021/05/27 04:25:38;;;;;;;2.28;0.80;;;9.80;88.00;;;;;;5113042;28;20035;-77
2021/05/27 04:28:05;;;;;;;1.38;0.73;;;9.90;88.00;;;;;;5113224;28;20039;-77
2021/05/27 04:30:31;;;;;;;1.33;0.77;;;9.90;88.10;;;;;;5061454;28;20035;-77
2021/05/27 04:33:06;;;;;;;0.90;0.80;;;9.90;88.10;;;;;;5095078;28;20043;-78
2021/05/27 04:35:40;;;;;;;1.17;0.63;;;9.90;88.80;;;;;;5078491;28;20057;-77
2021/05/27 04:38:09;;;;;;;1.50;1.00;;;9.90;88.20;;;;;;5076222;28;20039;-78
2021/05/27 04:40:36;;;;;;;0.93;0.70;;;9.90;88.20;;;;;;5061394;28;20031;-77
2021/05/27 04:43:03;;;;;;;1.60;0.80;;;9.90;88.10;;;;;;5061293;28;20027;-77
2021/05/27 04:45:29;;;;;;;1.90;0.88;;;9.90;88.20;;;;;;5095046;28;20421;-77
2021/05/27 04:47:56;;;;;;;1.13;0.70;;;9.90;88.20;;;;;;5094391;28;20039;-77
2021/05/27 04:50:23;;;;;;;1.60;0.77;;;9.90;88.20;;;;;;5112567;28;20040;-77
2021/05/27 04:52:50;;;;;;;1.88;1.10;;;9.90;88.20;;;;;;5077784;28;20075;-78
2021/05/27 04:55:18;;;;;;;0.55;0.50;;;9.90;88.20;;;;;;5077664;28;20097;-78
2021/05/27 04:57:44;;;;;;;0.85;0.65;;;9.90;88.20;;;;;;5094478;28;20032;-77
2021/05/27 05:00:14;;;;;;;1.13;0.77;;;9.90;88.30;;;;;;5112989;28;20055;-77
2021/05/27 05:02:40;;;;;;;1.17;0.82;;;10.00;88.30;;;;;;5077411;28;20063;-77
2021/05/27 05:05:11;;;;;;;2.17;0.90;;;9.90;88.30;;;;;;5112684;28;20399;-77
2021/05/27 05:07:39;;;;;;;1.10;0.70;;;9.90;88.30;;;;;;5094690;28;20043;-77
2021/05/27 05:10:07;;;;;;;1.25;0.70;;;10.00;88.30;;;;;;5077565;28;20051;-77
2021/05/27 05:12:44;;;;;;;1.98;0.70;;;9.90;88.30;;;;;;5094836;28;20055;-77
2021/05/27 05:15:13;;;;;;;2.67;0.77;;;9.90;88.40;;;;;;5079480;28;20391;-77
2021/05/27 05:17:39;;;;;;;1.00;0.85;;;9.90;88.50;;;;;;5094173;28;20907;-77
2021/05/27 05:20:05;;;;;;;1.98;0.70;;;10.00;88.50;;;;;;5112371;28;20079;-77
2021/05/27 05:22:31;;;;;;;1.10;0.80;;;9.90;88.40;;;;;;5112899;28;20062;-77
2021/05/27 05:24:57;;;;;;;1.10;0.80;;;9.90;88.30;;;;;;5112797;28;20478;-77
2021/05/27 05:27:23;;;;;;;1.88;0.82;;;9.90;88.40;;;;;;5112809;28;20032;-77
2021/05/27 05:29:48;;;;;;;2.00;0.90;;;10.00;88.50;;;;;;5077140;28;20044;-77
2021/05/27 05:32:14;;;;;;;1.17;0.60;;;10.00;88.50;;;;;;5112501;28;20042;-77
2021/05/27 05:34:40;;;;;;;0.70;0.60;;;10.00;88.50;;;;;;5077371;28;20043;-77
2021/05/27 05:37:06;;;;;;;1.23;0.60;;;10.00;88.50;;;;;;5077103;28;21423;-77
2021/05/27 05:39:32;;;;;;;0.70;0.60;;;10.00;88.50;;;;;;5112639;28;20039;-77
2021/05/27 05:41:58;;;;;;;0.95;0.60;;;10.00;88.50;;;;;;5112312;28;20040;-77
2021/05/27 05:44:24;;;;;;;0.50;0.50;;;10.00;88.60;;;;;;5112438;28;20105;-77
2021/05/27 05:46:49;;;;;;;0.80;0.50;;;10.00;88.50;;;;;;5077178;28;20509;-78
2021/05/27 05:49:15;;;;;;;2.63;0.85;;;10.00;88.50;;;;;;5077015;28;20036;-77
2021/05/27 05:51:41;;;;;;;1.70;0.93;;;10.10;88.60;;;;;;5076922;28;20046;-77
2021/05/27 05:54:06;;;;;;;1.08;0.88;;;10.10;88.60;;;;;;5111935;28;20061;-77
2021/05/27 05:56:32;;;;;;;0.80;0.68;;;10.10;88.60;;;;;;5060012;28;20046;-77
2021/05/27 05:58:58;;;;;;;1.23;0.70;;;10.00;88.50;;;;;;5091326;28;20514;-77
2021/05/27 06:01:23;;;;;;;1.67;0.90;;;10.00;88.50;;;;;;5095549;28;20089;-77
2021/05/27 06:03:51;;;;;;;0.98;0.70;;;10.10;88.60;;;;;;5080146;28;20040;-77
2021/05/27 06:06:17;;;;;;;1.35;0.80;;;10.10;88.60;;;;;;5097376;28;20420;-77
2021/05/27 06:08:43;;;;;;;1.58;0.95;;;9.90;88.60;;;;;;5080141;28;20039;-78
2021/05/27 06:11:09;;;;;;;1.45;0.80;;;10.10;89.30;;;;;;5080344;28;20082;-79
2021/05/27 06:13:34;;;;;;;1.00;0.75;;;10.00;88.70;;;;;;5116048;28;20039;-79
2021/05/27 06:16:00;;;;;;;0.93;0.80;;;10.20;88.70;;;;;;5080200;28;20494;-79
2021/05/27 06:18:26;;;;;;;1.05;0.70;;;10.10;88.70;;;;;;5080205;28;20039;-79
2021/05/27 06:20:52;;;;;;;0.60;0.60;;;10.20;88.70;;;;;;5079885;28;20563;-78
2021/05/27 06:23:18;;;;;;;1.25;0.80;;;10.10;88.70;;;;;;5080022;28;20061;-79
2021/05/27 06:25:43;;;;;;;1.40;0.70;;;10.10;88.70;;;;;;5096812;28;20380;-78
2021/05/27 06:28:09;;;;;;;1.05;0.65;;;10.20;88.80;;;;;;5063045;28;20035;-79
2021/05/27 06:30:35;;;;;;;1.92;0.90;;;10.10;88.70;;;;;;5079738;28;20454;-78
2021/05/27 06:33:01;;;;;;;0.80;0.60;;;10.10;88.70;;;;;;5114959;28;20123;-79
2021/05/27 06:35:28;;;;;;;1.15;0.75;;;10.20;88.80;;;;;;5079560;28;20048;-79
2021/05/27 06:37:54;;;;;;;2.13;0.70;;;10.10;88.80;;;;;;5098332;28;20038;-77
2021/05/27 06:40:23;;;;;;;2.15;0.90;;;10.20;88.80;;;;;;5097241;28;20039;-76
2021/05/27 06:42:50;;;;;;;1.52;0.90;;;10.20;88.80;;;;;;5096518;28;20044;-78
2021/05/27 06:45:18;;;;;;;1.25;0.85;;;10.20;88.80;;;;;;5097751;28;20513;-77
2021/05/27 06:47:45;;;;;;;1.13;0.75;;;10.20;88.80;;;;;;5096532;28;20047;-76
2021/05/27 06:50:13;;;;;;;0.63;0.60;;;10.20;88.80;;;;;;5062853;28;20059;-76
2021/05/27 06:52:39;;;;;;;1.60;0.80;;;10.20;88.80;;;;;;5079868;28;20052;-76
2021/05/27 06:55:06;;;;;;;1.10;0.80;;;10.30;88.90;;;;;;5094379;28;20047;-77
2021/05/27 06:57:32;;;;;;;1.63;0.85;;;10.30;88.80;;;;;;5079575;28;20518;-78
2021/05/27 06:59:58;;;;;;;2.78;0.90;;;10.20;88.80;;;;;;5114314;28;20043;-77
2021/05/27 07:02:24;;;;;;;1.17;0.75;;;10.30;88.80;;;;;;5114360;28;20043;-77
2021/05/27 07:04:49;;;;;;;1.30;0.80;;;10.30;88.80;;;;;;5096831;28;20040;-77
2021/05/27 07:07:15;;;;;;;1.15;0.70;;;10.30;88.80;;;;;;5079787;28;20100;-77
2021/05/27 07:09:41;;;;;;;1.05;0.70;;;10.30;88.80;;;;;;5115031;28;20039;-79
2021/05/27 07:12:07;;;;;;;1.00;0.60;;;10.30;88.80;;;;;;5095418;28;20071;-77
2021/05/27 07:14:33;;;;;;;1.50;0.70;;;10.40;88.80;;;;;;5114938;28;20043;-77
2021/05/27 07:17:01;;;;;;;1.40;0.70;;;10.40;88.90;;;;;;5079476;28;20493;-77
2021/05/27 07:19:27;;;;;;;0.77;0.40;;;10.40;88.90;;;;;;5114322;28;20139;-78
2021/05/27 07:21:52;;;;;;;0.50;0.50;;;10.40;88.90;;;;;;5096106;28;20040;-76
2021/05/27 07:24:18;;;;;;;1.17;0.88;;;10.40;88.90;;;;;;5096076;28;20089;-77
2021/05/27 07:26:45;;;;;;;1.05;0.60;;;10.40;88.90;;;;;;5114709;28;20031;-77
2021/05/27 07:29:11;;;;;;;0.88;0.70;;;10.40;88.90;;;;;;5079421;28;20089;-77
2021/05/27 07:31:37;;;;;;;1.10;0.70;;;10.40;89.00;;;;;;5078955;28;20498;-78
2021/05/27 07:34:05;;;;;;;1.73;1.00;;;10.40;88.90;;;;;;5113923;28;20059;-77
2021/05/27 07:36:31;;;;;;;2.55;0.80;;;10.40;89.00;;;;;;5113989;28;20043;-77
2021/05/27 07:38:57;;;;;;;1.00;0.70;;;10.40;89.00;;;;;;5114712;28;20043;-76
2021/05/27 07:41:22;;;;;;;1.40;0.60;;;10.40;88.90;;;;;;5078794;28;20038;-76
2021/05/27 07:43:50;;;;;;;2.25;0.60;;;10.50;89.00;;;;;;5113909;28;20042;-75
2021/05/27 07:46:17;;;;;;;0.43;0.43;;;10.50;89.00;;;;;;5094482;28;20454;-77
2021/05/27 07:48:43;;;;;;;0.75;0.63;;;10.40;88.90;;;;;;5095701;28;20063;-76
2021/05/27 07:51:08;;;;;;;0.77;0.70;;;10.50;88.90;;;;;;5113936;28;20085;-76
2021/05/27 07:53:34;;;;;;;1.58;0.75;;;10.50;89.00;;;;;;5113881;28;20614;-75
2021/05/27 07:56:00;;;;;;;1.42;0.77;;;10.40;88.90;;;;;;5078502;28;20043;-75
2021/05/27 07:58:26;;;;;;;1.05;0.63;;;10.50;89.00;;;;;;5097087;28;20115;-75
2021/05/27 08:00:51;;;;;;;0.50;0.45;;;10.50;89.00;;;;;;5095735;28;20089;-75
2021/05/27 08:03:17;;;;;;;0.73;0.50;;;10.50;89.00;;;;;;5113386;28;20117;-76
2021/05/27 08:05:43;;;;;;;1.63;0.50;;;10.50;89.00;;;;;;5095724;28;20032;-77
2021/05/27 08:08:08;;;;;;;1.35;0.70;;;10.50;89.00;;;;;;5095652;28;20035;-77
2021/05/27 08:10:34;;;;;;;1.10;0.70;;;10.50;89.00;;;;;;5095171;28;20038;-76
2021/05/27 08:13:00;;;;;;;0.60;0.60;;;10.50;89.00;;;;;;5113713;28;20034;-76
2021/05/27 08:15:26;;;;;;;0.57;0.50;;;10.60;89.10;;;;;;5094950;28;20517;-75
2021/05/27 08:17:51;;;;;;;0.98;0.65;;;10.60;89.00;;;;;;5113749;28;20034;-76
2021/05/27 08:20:17;;;;;;;0.73;0.50;;;10.60;89.10;;;;;;5113246;28;20036;-76
2021/05/27 08:22:43;;;;;;;1.50;0.60;;;10.60;89.00;;;;;;5092922;28;20040;-75
2021/05/27 08:25:09;;;;;;;1.27;0.77;;;10.60;89.00;;;;;;5095018;28;20043;-77
2021/05/27 08:27:35;;;;;;;0.70;0.60;;;10.60;88.90;;;;;;5095220;28;20042;-78
2021/05/27 08:30:01;;;;;;;1.45;0.80;;;10.70;89.00;;;;;;5113351;28;20044;-77
2021/05/27 08:32:27;;;;;;;1.30;0.82;;;10.70;88.90;;;;;;5078415;28;20070;-76
2021/05/27 08:34:53;;;;;;;0.95;0.70;;;10.70;88.90;;;;;;5095028;28;20460;-76
2021/05/27 08:37:19;;;;;;;0.80;0.60;;;10.70;88.90;;;;;;5094935;28;20044;-78
2021/05/27 08:39:45;;;;;;;0.93;0.50;;;10.70;88.90;;;;;;5078172;28;20399;-76
2021/05/27 08:42:11;;;;;;;1.20;0.60;;;10.70;89.00;;;;;;5095063;28;20042;-79
2021/05/27 08:44:40;;;;;;;1.48;0.63;;;10.70;88.90;;;;;;5095213;28;20059;-77
2021/05/27 08:47:06;;;;;;;0.95;0.63;;;10.80;89.00;;;;;;5112873;28;20126;-76
2021/05/27 08:49:34;;;;;;;0.70;0.50;;;10.70;88.90;;;;;;5113029;28;20072;-77
2021/05/27 08:52:00;;;;;;;0.70;0.60;;;10.80;89.00;;;;;;5095353;28;20046;-75
2021/05/27 08:54:25;;;;;;;1.10;0.60;;;10.80;89.00;;;;;;5077499;28;20051;-76
2021/05/27 08:56:51;;;;;;;1.85;0.70;;;10.80;88.90;;;;;;5078900;28;20089;-76
2021/05/27 08:59:17;;;;;;;1.13;0.60;;;10.80;88.90;;;;;;5093115;28;20044;-76
2021/05/27 09:02:00;;;;;;;0.70;0.50;;;10.90;88.90;;;;;;5077664;28;20443;-76
2021/05/27 09:04:26;;;;;;;0.60;0.50;;;11.00;88.90;;;;;;5113156;28;20054;-77
2021/05/27 09:06:52;;;;;;;1.02;0.50;;;11.00;88.90;;;;;;5077507;28;20110;-76
2021/05/27 09:09:18;;;;;;;0.95;0.73;;;11.10;88.80;;;;;;5077514;28;20073;-75
2021/05/27 09:11:46;;;;;;;1.23;0.77;;;11.00;88.70;;;;;;5077537;28;20039;-76
2021/05/27 09:14:12;;;;;;;1.13;0.60;;;11.00;88.80;;;;;;5094673;28;20517;-76
2021/05/27 09:16:55;;;;;;;0.75;0.57;;;11.00;88.90;;;;;;5094201;28;20435;-76
2021/05/27 09:19:20;;;;;;;2.00;0.68;;;11.00;88.90;;;;;;5094062;28;20046;-76
2021/05/27 09:21:46;;;;;;;0.93;0.60;;;10.90;88.80;;;;;;5093906;28;20138;-76
2021/05/27 09:24:12;;;;;;;0.80;0.65;;;11.00;88.80;;;;;;5093300;28;20064;-79
2021/05/27 09:26:53;;;;;;;0.90;0.73;;;10.90;88.90;;;;;;5095001;28;20059;-76
2021/05/27 09:29:20;;;;;;;1.13;0.65;;;10.90;89.00;;;;;;5094122;28;20039;-77
2021/05/27 09:32:05;;;;;;;1.00;0.70;;;10.80;89.00;;;;;;5094112;28;20046;-77
2021/05/27 09:34:45;;;;;;;1.10;0.52;;;10.90;89.20;;;;;;5094122;28;20065;-76
2021/05/27 09:37:28;;;;;;;1.07;0.70;;;10.90;89.20;;;;;;5115943;28;20062;-75
2021/05/27 09:39:54;;;;;;;2.38;1.00;;;11.00;89.80;;;;;;5098220;28;20777;-77
2021/05/27 09:42:20;;;;;;;1.02;0.77;;;11.00;88.90;;;;;;5064311;28;20043;-76
2021/05/27 09:44:46;;;;;;;1.02;0.70;;;11.10;88.70;;;;;;5115894;28;20078;-76
2021/05/27 09:47:11;;;;;;;0.93;0.77;;;11.10;88.70;;;;;;5116339;28;20035;-75
2021/05/27 09:49:56;;;;;;;1.40;0.77;;;11.10;88.60;;;;;;5116331;28;20471;-75
2021/05/27 09:52:24;;;;;;;0.70;0.70;;;11.20;88.60;;;;;;5116221;28;20046;-75
2021/05/27 09:54:56;;;;;;;1.73;0.80;;;11.10;88.50;;;;;;5098395;28;20045;-75
2021/05/27 09:57:23;;;;;;;2.95;1.40;;;11.00;88.60;;;;;;5115701;28;20043;-77
2021/05/27 09:59:49;;;;;;;2.78;1.10;;;11.00;88.70;;;;;;5080669;28;20491;-77
2021/05/27 10:02:17;;;;;;;2.60;1.10;;;11.00;88.80;;;;;;5115637;28;20069;-77
2021/05/27 10:05:04;;;;;;;2.10;1.20;;;11.00;88.80;;;;;;5080984;28;20035;-75
2021/05/27 10:07:45;;;;;;;1.67;0.80;;;11.00;89.10;;;;;;5097134;28;20440;-77
2021/05/27 10:10:14;;;;;;;1.70;0.90;;;11.00;88.80;;;;;;5081311;28;20043;-76
2021/05/27 10:12:43;;;;;;;1.65;1.00;;;11.10;88.80;;;;;;5081341;28;20528;-76
2021/05/27 10:15:13;;;;;;;0.93;0.75;;;11.10;88.70;;;;;;5081200;28;20131;-75
2021/05/27 10:17:41;;;;;;;1.40;1.00;;;11.20;88.70;;;;;;5098184;28;20044;-76
2021/05/27 10:20:10;;;;;;;1.75;0.85;;;11.10;88.70;;;;;;5115676;28;20043;-75
2021/05/27 10:22:36;;;;;;;0.80;0.70;;;11.20;88.60;;;;;;5115035;28;20518;-75
2021/05/27 10:25:06;;;;;;;1.42;0.80;;;11.30;88.60;;;;;;5116359;28;20118;-75
2021/05/27 10:27:32;;;;;;;2.10;0.80;;;11.40;88.50;;;;;;5116695;28;20127;-75
2021/05/27 10:29:59;;;;;;;2.05;0.90;;;11.40;88.50;;;;;;5097131;28;20075;-75
2021/05/27 10:32:28;;;;;;;2.53;1.02;;;11.40;88.20;;;;;;5097090;28;20042;-75
2021/05/27 10:34:54;;;;;;;1.27;0.90;;;11.60;88.10;;;;;;5097062;28;20042;-75
2021/05/27 10:37:48;;;;;;;2.78;0.95;;;11.70;87.90;;;;;;5115535;28;20430;-75
2021/05/27 10:40:35;;;;;;;2.97;1.20;;;11.70;87.70;;;;;;5101524;28;20490;-75
2021/05/27 10:43:10;;;;;;;3.15;1.30;;;11.70;87.50;;;;;;5101454;28;20043;-75
2021/05/27 10:46:04;;;;;;;3.38;1.25;;;11.70;87.60;;;;;;5098035;28;20041;-75
2021/05/27 10:48:38;;;;;;;3.65;1.67;;;11.70;87.60;;;;;;5116206;28;20043;-75
2021/05/27 10:51:09;;;;;;;3.10;1.40;;;11.70;87.70;;;;;;5064051;28;20040;-76
2021/05/27 10:53:50;;;;;;;;;;;11.60;87.60;;;;;;5098486;28;20081;-74
2021/05/27 10:56:20;;;;;;;2.85;1.58;;;11.60;87.70;;;;;;5115194;28;19912;-75
2021/05/27 10:59:07;;;;;;;1.92;1.40;;;11.60;87.80;;;;;;5096650;28;20126;-77
2021/05/27 11:01:53;;;;;;;1.52;1.10;;;11.50;87.90;;;;;;5082598;28;20138;-76
2021/05/27 11:04:26;;;;;;;1.92;1.15;;;11.50;88.00;;;;;;5082175;28;20036;-75
2021/05/27 11:07:10;;;;;;;2.33;1.30;;;11.50;88.10;;;;;;5077395;28;20412;-76
2021/05/27 11:09:37;;;;;;;2.63;1.10;;;11.60;88.30;;;;;;5096408;28;20482;-74
2021/05/27 11:12:16;;;;;;;2.13;1.02;;;11.50;88.20;;;;;;5096483;28;20050;-79
2021/05/27 11:14:46;;;;;;;2.17;1.00;;;11.40;88.40;;;;;;5096459;28;20652;-79
2021/05/27 11:17:18;;;;;;;1.43;0.90;;;11.40;88.60;;;;;;5096256;28;20067;-78
2021/05/27 11:22:49;;;;;;;1.67;1.00;;;11.50;88.60;;;;;;5113981;28;20054;-81
2021/05/27 11:25:25;;;;;;;1.35;0.80;;;11.50;88.50;;;;;;5095682;28;20479;-78
2021/05/27 11:27:57;;;;;;;3.03;1.00;;;11.50;88.40;;;;;;5114077;28;20092;-78
2021/05/27 11:30:40;;;;;;;1.27;0.90;;;11.60;88.30;;;;;;5062669;28;20048;-77
2021/05/27 11:33:29;;;;;;;1.88;0.88;;;11.60;88.30;;;;;;5097962;28;20059;-77
2021/05/27 11:35:58;;;;;;;1.40;0.85;;;11.60;88.30;;;;;;5114021;28;20043;-76
2021/05/27 11:38:32;;;;;;;1.02;0.90;;;11.70;88.00;;;;;;5113955;28;20042;-78
2021/05/27 11:41:04;;;;;;;1.92;0.90;;;11.80;88.00;;;;;;5096787;28;20035;-77
2021/05/27 11:43:31;;;;;;;;;;;11.80;87.90;;;;;;5079569;28;20058;-76
2021/05/27 11:45:59;;;;;;;1.45;0.90;;;11.90;87.90;;;;;;5095397;28;19915;-77
2021/05/27 11:48:31;;;;;;;2.95;0.80;;;11.80;87.70;;;;;;5095658;28;20043;-77
2021/05/27 11:51:12;;;;;;;0.88;0.70;;;11.90;87.80;;;;;;5079507;28;20043;-77
2021/05/27 11:54:00;;;;;;;1.08;0.70;;;11.90;88.00;;;;;;5080095;28;20138;-77
2021/05/27 11:56:37;;;;;;;1.05;0.80;;;12.00;87.90;;;;;;5098503;28;20051;-77
2021/05/27 11:59:07;;;;;;;1.20;0.77;;;12.10;87.80;;;;;;5062606;28;20043;-75
2021/05/27 12:01:33;;;;;;;0.68;0.60;;;12.20;87.60;;;;;;5096073;28;20044;-77
2021/05/27 12:04:13;;;;;;;1.15;0.90;;;12.20;87.50;;;;;;5078327;28;20039;-76
2021/05/27 12:07:04;;;;;;;0.88;0.73;;;12.10;87.60;;;;;;5097330;28;20127;-76
2021/05/27 12:09:46;;;;;;;1.00;0.60;;;12.30;87.70;;;;;;5112634;28;20051;-76
2021/05/27 12:12:19;;;;;;;0.70;0.70;;;12.40;87.50;;;;;;5095331;28;20035;-75
2021/05/27 12:14:48;;;;;;;1.45;0.80;;;12.50;87.20;;;;;;5096140;28;20131;-75
2021/05/27 12:17:19;;;;;;;1.25;0.70;;;12.60;87.10;;;;;;5078625;28;20043;-77
2021/05/27 12:19:49;;;;;;;1.67;1.02;;;12.70;87.10;;;;;;5113600;28;20039;-77
2021/05/27 12:22:16;;;;;;;2.53;1.00;;;12.80;86.80;;;;;;5113249;28;20039;-76
2021/05/27 12:24:41;;;;;;;2.35;1.08;;;12.80;86.80;;;;;;5095037;28;20042;-78
2021/05/27 12:27:07;;;;;;;1.40;0.90;;;12.70;86.70;;;;;;5092877;28;20407;-77
2021/05/27 12:29:33;;;;;;;1.55;0.70;;;12.70;86.80;;;;;;5078034;28;20042;-77
2021/05/27 12:31:59;;;;;;;1.88;0.88;;;12.50;87.10;;;;;;5094783;28;20471;-79
2021/05/27 12:34:25;;;;;;;0.68;0.60;;;12.50;87.30;;;;;;5078006;28;20039;-79
2021/05/27 12:36:54;;;;;;;1.27;0.80;;;12.40;87.50;;;;;;5094841;28;20047;-78
2021/05/27 12:39:37;;;;;;;1.17;0.80;;;12.40;87.80;;;;;;5094499;28;20409;-78
2021/05/27 12:42:06;;;;;;;0.98;0.77;;;12.30;88.20;;;;;;5077708;28;20483;-77
2021/05/27 12:44:42;;;;;;;1.15;0.77;;;12.30;88.20;;;;;;5094948;28;20040;-76
2021/05/27 12:47:15;;;;;;;0.63;0.63;;;12.20;88.30;;;;;;5094497;28;20095;-78
2021/05/27 12:49:41;;;;;;;1.23;0.60;;;12.30;88.30;;;;;;5094988;28;20039;-79
2021/05/27 12:52:07;;;;;;;1.38;0.50;;;12.40;88.20;;;;;;5061266;28;20046;-80
2021/05/27 12:54:34;;;;;;;0.95;0.60;;;12.40;88.10;;;;;;5093882;28;20067;-77
2021/05/27 12:57:01;;;;;;;1.25;0.65;;;12.50;88.10;;;;;;5113000;28;20505;-79
2021/05/27 12:59:27;;;;;;;1.02;0.63;;;12.50;87.90;;;;;;5094663;28;20371;-78
2021/05/27 13:01:58;;;;;;;1.13;0.60;;;12.60;87.70;;;;;;5094562;28;20046;-77